createdAt,value
2022-08-07T00:01:43.714Z,7.28
2022-08-07T00:04:06.230Z,7.93
2022-08-07T00:06:36.336Z,8.23
2022-08-07T00:09:16.267Z,7.28
2022-08-07T00:11:54.104Z,8.05
2022-08-07T00:14:25.362Z,7.65
2022-08-07T00:16:57.595Z,6.97
2022-08-07T00:19:26.176Z,7.30
2022-08-07T00:22:10.999Z,8.07
2022-08-07T00:24:38.824Z,8.55
2022-08-07T00:27:07.262Z,7.90
2022-08-07T00:29:37.030Z,8.95
2022-08-07T00:32:06.965Z,8.68
2022-08-07T00:34:35.630Z,8.25
2022-08-07T00:37:02.911Z,8.00
2022-08-07T00:39:32.395Z,7.72
2022-08-07T00:42:01.753Z,8.20
2022-08-07T00:44:29.587Z,8.52
2022-08-07T00:46:56.344Z,7.53
2022-08-07T00:49:24.843Z,8.23
2022-08-07T00:52:10.935Z,8.88
2022-08-07T00:54:40.619Z,8.35
2022-08-07T00:57:09.189Z,8.63
2022-08-07T00:59:37.664Z,8.32
2022-08-07T01:02:09.044Z,7.88
2022-08-07T01:04:58.211Z,7.95
2022-08-07T01:07:29.264Z,7.80
2022-08-07T01:10:06.322Z,8.30
2022-08-07T01:12:53.389Z,7.47
2022-08-07T01:15:23.252Z,8.43
2022-08-07T01:18:17.693Z,7.78
2022-08-07T01:20:57.351Z,7.68
2022-08-07T01:26:12.368Z,8.32
2022-08-07T01:28:48.498Z,7.55
2022-08-07T01:31:19.000Z,8.05
2022-08-07T01:33:55.007Z,7.22
2022-08-07T01:36:33.179Z,8.20
2022-08-07T01:39:10.136Z,6.65
2022-08-07T01:41:40.836Z,7.28
2022-08-07T01:44:28.032Z,7.13
2022-08-07T01:46:57.788Z,7.38
2022-08-07T01:49:31.961Z,6.68
2022-08-07T01:52:04.921Z,6.77
2022-08-07T01:54:44.738Z,7.72
2022-08-07T01:57:25.905Z,7.20
2022-08-07T01:59:57.747Z,7.63
2022-08-07T02:03:11.640Z,6.55
2022-08-07T02:06:01.078Z,5.03
2022-08-07T02:08:45.252Z,4.95
2022-08-07T02:11:31.059Z,4.57
2022-08-07T02:14:08.570Z,4.40
2022-08-07T02:16:40.114Z,4.22
2022-08-07T02:20:05.280Z,4.05
2022-08-07T02:22:02.886Z,3.97
2022-08-07T02:24:38.380Z,3.38
2022-08-07T02:27:14.256Z,3.50
2022-08-07T02:29:53.921Z,3.30
2022-08-07T02:32:29.812Z,3.00
2022-08-07T02:35:01.613Z,3.05
2022-08-07T02:37:37.927Z,3.40
2022-08-07T02:40:34.874Z,2.88
2022-08-07T02:43:07.783Z,3.40
2022-08-07T02:46:00.764Z,3.35
2022-08-07T02:48:34.480Z,2.50
2022-08-07T02:51:28.866Z,3.45
2022-08-07T02:53:59.296Z,2.72
2022-08-07T02:56:32.080Z,2.80
2022-08-07T02:59:02.281Z,3.13
2022-08-07T03:01:35.283Z,3.20
2022-08-07T03:04:07.083Z,2.67
2022-08-07T03:06:35.408Z,2.83
2022-08-07T03:09:05.382Z,3.20
2022-08-07T03:11:38.939Z,2.80
2022-08-07T03:14:07.090Z,3.08
2022-08-07T03:16:35.713Z,3.10
2022-08-07T03:19:02.879Z,2.50
2022-08-07T03:21:33.000Z,3.00
2022-08-07T03:24:20.592Z,2.40
2022-08-07T03:26:57.978Z,2.58
2022-08-07T03:29:33.680Z,2.88
2022-08-07T03:32:13.230Z,2.85
2022-08-07T03:34:47.464Z,2.67
2022-08-07T03:37:32.776Z,3.47
2022-08-07T03:40:15.571Z,3.05
2022-08-07T03:42:43.762Z,3.30
2022-08-07T03:45:11.467Z,3.42
2022-08-07T03:47:45.010Z,3.03
2022-08-07T03:50:23.444Z,2.90
2022-08-07T03:52:52.973Z,2.90
2022-08-07T03:55:19.868Z,3.35
2022-08-07T03:59:06.776Z,2.97
2022-08-07T04:00:37.574Z,2.65
2022-08-07T04:03:13.306Z,3.20
2022-08-07T04:05:42.260Z,2.70
2022-08-07T04:08:12.577Z,2.58
2022-08-07T04:10:54.472Z,2.95
2022-08-07T04:14:10.859Z,2.53
2022-08-07T04:16:30.049Z,2.50
2022-08-07T04:19:01.745Z,2.80
2022-08-07T04:21:32.018Z,2.90
2022-08-07T04:24:07.908Z,2.47
2022-08-07T04:26:37.065Z,3.03
2022-08-07T04:29:04.000Z,2.78
2022-08-07T04:31:38.852Z,3.08
2022-08-07T04:34:24.251Z,2.90
2022-08-07T04:36:54.488Z,2.90
2022-08-07T04:39:25.881Z,2.88
2022-08-07T04:44:20.885Z,3.10
2022-08-07T04:47:08.213Z,2.85
2022-08-07T04:49:41.529Z,2.63
2022-08-07T04:52:35.859Z,2.78
2022-08-07T04:58:15.616Z,2.85
2022-08-07T04:59:15.881Z,2.75
2022-08-07T05:01:51.325Z,2.38
2022-08-07T05:04:43.960Z,2.83
2022-08-07T05:07:20.975Z,3.00
2022-08-07T05:10:11.735Z,3.10
2022-08-07T05:12:46.172Z,3.60
2022-08-07T05:15:27.048Z,2.80
2022-08-07T05:18:09.264Z,2.85
2022-08-07T05:20:45.082Z,3.20
2022-08-07T05:23:16.551Z,2.85
2022-08-07T05:26:13.377Z,3.05
2022-08-07T05:28:35.056Z,2.35
2022-08-07T05:31:03.643Z,2.13
2022-08-07T05:33:35.505Z,2.88
2022-08-07T05:36:07.103Z,3.70
2022-08-07T05:38:59.873Z,3.40
2022-08-07T05:41:29.533Z,3.25
2022-08-07T05:44:29.671Z,2.97
2022-08-07T05:46:57.576Z,2.90
2022-08-07T05:49:27.802Z,3.13
2022-08-07T05:52:11.704Z,3.30
2022-08-07T05:54:53.575Z,3.53
2022-08-07T05:57:30.190Z,3.33
2022-08-07T06:00:01.433Z,3.40
2022-08-07T06:02:31.274Z,2.97
2022-08-07T06:05:03.343Z,3.22
2022-08-07T06:08:14.321Z,3.28
2022-08-07T06:10:18.505Z,2.78
2022-08-07T06:12:46.871Z,3.25
2022-08-07T06:15:16.417Z,3.00
2022-08-07T06:17:53.374Z,3.08
2022-08-07T06:20:31.804Z,3.67
2022-08-07T06:23:02.135Z,2.92
2022-08-07T06:25:54.712Z,3.45
2022-08-07T06:28:27.207Z,2.92
2022-08-07T06:30:55.774Z,3.25
2022-08-07T06:33:24.350Z,3.22
2022-08-07T06:36:06.414Z,4.10
2022-08-07T06:38:38.766Z,3.35
2022-08-07T06:41:58.794Z,3.70
2022-08-07T06:44:17.367Z,3.30
2022-08-07T06:46:53.591Z,4.03
2022-08-07T06:49:33.923Z,3.70
2022-08-07T06:52:31.575Z,3.40
2022-08-07T06:55:32.249Z,3.25
2022-08-07T06:57:59.223Z,3.40
2022-08-07T07:00:31.066Z,3.60
2022-08-07T07:03:00.788Z,3.40
2022-08-07T07:06:03.514Z,3.53
2022-08-07T07:08:26.712Z,3.50
2022-08-07T07:10:56.757Z,3.50
2022-08-07T07:13:57.949Z,3.90
2022-08-07T07:16:49.846Z,3.47
2022-08-07T07:19:55.799Z,3.38
2022-08-07T07:22:35.710Z,3.38
2022-08-07T07:26:30.862Z,3.80
2022-08-07T07:28:42.337Z,3.80
2022-08-07T07:31:05.510Z,3.88
2022-08-07T07:33:37.644Z,3.80
2022-08-07T07:36:12.725Z,3.80
2022-08-07T07:38:47.634Z,3.42
2022-08-07T07:41:17.931Z,3.30
2022-08-07T07:44:16.949Z,3.75
2022-08-07T07:46:56.044Z,3.63
2022-08-07T07:50:36.041Z,3.40
2022-08-07T07:52:18.145Z,3.75
2022-08-07T07:54:51.508Z,3.25
2022-08-07T07:57:29.069Z,3.38
2022-08-07T08:00:28.901Z,3.88
2022-08-07T08:03:05.259Z,3.78
2022-08-07T08:05:51.135Z,3.70
2022-08-07T08:08:36.348Z,4.03
2022-08-07T08:11:08.549Z,3.63
2022-08-07T08:13:53.951Z,3.85
2022-08-07T08:16:35.117Z,4.32
2022-08-07T08:19:09.812Z,3.70
2022-08-07T08:22:11.644Z,4.00
2022-08-07T08:25:09.568Z,3.53
2022-08-07T08:27:56.806Z,3.78
2022-08-07T08:30:28.215Z,3.30
2022-08-07T08:32:58.833Z,3.40
2022-08-07T08:35:28.796Z,3.35
2022-08-07T08:38:08.924Z,3.25
2022-08-07T08:40:46.829Z,3.55
2022-08-07T08:43:41.979Z,3.47
2022-08-07T08:46:49.175Z,3.63
2022-08-07T08:50:02.143Z,3.92
2022-08-07T08:52:36.089Z,3.70
2022-08-07T08:58:20.267Z,3.75
2022-08-07T09:01:14.605Z,3.58
2022-08-07T09:04:11.061Z,4.10
2022-08-07T09:06:50.302Z,3.58
2022-08-07T09:09:47.502Z,4.35
2022-08-07T09:12:33.130Z,3.75
2022-08-07T09:16:20.036Z,3.50
2022-08-07T09:18:15.689Z,3.80
2022-08-07T09:21:06.076Z,3.60
2022-08-07T09:24:32.048Z,3.75
2022-08-07T09:27:23.771Z,3.90
2022-08-07T09:30:08.013Z,3.72
2022-08-07T09:36:01.148Z,3.55
2022-08-07T09:38:50.261Z,4.25
2022-08-07T09:41:59.045Z,3.55
2022-08-07T09:47:20.037Z,4.47
2022-08-07T09:48:15.445Z,3.78
2022-08-07T09:51:05.450Z,3.65
2022-08-07T09:54:02.359Z,3.97
2022-08-07T09:56:37.296Z,3.88
2022-08-07T09:59:28.135Z,3.83
2022-08-07T10:02:16.225Z,3.90
2022-08-07T10:04:46.191Z,3.70
2022-08-07T10:07:26.212Z,4.00
2022-08-07T10:10:23.847Z,4.03
2022-08-07T10:13:15.751Z,3.58
2022-08-07T10:19:01.228Z,3.70
2022-08-07T10:22:15.583Z,4.15
2022-08-07T10:27:46.252Z,3.38
2022-08-07T10:30:20.125Z,3.65
2022-08-07T10:33:14.924Z,3.97
2022-08-07T10:36:14.596Z,4.22
2022-08-07T10:38:51.226Z,3.50
2022-08-07T10:41:53.169Z,3.75
2022-08-07T10:44:37.625Z,3.88
2022-08-07T10:47:53.848Z,4.40
2022-08-07T10:50:44.846Z,3.80
2022-08-07T10:53:44.326Z,3.42
2022-08-07T10:56:31.789Z,3.08
2022-08-07T10:59:21.689Z,3.60
2022-08-07T11:01:51.344Z,3.70
2022-08-07T11:05:07.317Z,4.05
2022-08-07T11:08:00.284Z,3.63
2022-08-07T11:10:34.863Z,3.72
2022-08-07T11:14:41.994Z,4.00
2022-08-07T11:34:29.320Z,3.33
2022-08-07T11:37:03.097Z,3.75
2022-08-07T11:40:00.462Z,3.78
2022-08-07T11:42:43.889Z,3.58
2022-08-07T11:45:49.956Z,3.50
2022-08-07T11:48:53.820Z,3.45
2022-08-07T11:51:41.717Z,3.50
2022-08-07T11:54:26.741Z,3.20
2022-08-07T11:57:12.712Z,3.53
2022-08-07T12:00:11.639Z,3.92
2022-08-07T12:02:57.923Z,3.13
2022-08-07T12:05:48.936Z,2.90
2022-08-07T12:08:35.028Z,3.58
2022-08-07T12:12:09.414Z,3.50
2022-08-07T12:14:37.102Z,3.58
2022-08-07T12:17:20.486Z,3.17
2022-08-07T12:20:03.914Z,3.75
2022-08-07T12:22:56.170Z,3.55
2022-08-07T12:26:22.450Z,3.03
2022-08-07T12:28:56.354Z,3.00
2022-08-07T12:31:52.329Z,3.38
2022-08-07T12:34:21.452Z,2.45
2022-08-07T12:36:51.240Z,3.28
2022-08-07T12:39:43.051Z,3.10
2022-08-07T12:42:13.125Z,3.33
2022-08-07T12:44:45.423Z,2.85
2022-08-07T12:47:31.091Z,3.20
2022-08-07T12:50:33.785Z,3.20
2022-08-07T12:53:22.426Z,3.33
2022-08-07T12:56:02.990Z,3.00
2022-08-07T12:58:37.571Z,2.53
2022-08-07T13:01:08.946Z,3.00
2022-08-07T13:04:02.364Z,3.50
2022-08-07T13:07:01.347Z,3.00
2022-08-07T13:10:36.734Z,3.30
2022-08-07T13:12:39.544Z,2.80
2022-08-07T13:15:39.179Z,4.00
2022-08-07T13:18:34.237Z,3.70
2022-08-07T13:21:09.655Z,3.03
2022-08-07T13:24:01.872Z,2.88
2022-08-07T13:26:33.899Z,2.85
2022-08-07T13:29:24.512Z,3.10
2022-08-07T13:32:23.689Z,3.22
2022-08-07T13:35:00.424Z,2.72
2022-08-07T13:37:59.144Z,2.92
2022-08-07T13:40:35.322Z,2.53
2022-08-07T13:43:13.254Z,2.92
2022-08-07T13:46:11.254Z,3.20
2022-08-07T13:48:35.037Z,3.33
2022-08-07T13:51:27.139Z,2.58
2022-08-07T13:54:00.874Z,3.33
2022-08-07T13:56:35.040Z,2.95
2022-08-07T13:59:12.724Z,2.85
2022-08-07T14:02:03.606Z,3.30
2022-08-07T14:04:36.075Z,2.92
2022-08-07T14:07:09.516Z,3.20
2022-08-07T14:10:12.007Z,3.53
2022-08-07T14:12:31.137Z,3.15
2022-08-07T14:15:08.871Z,3.80
2022-08-07T14:18:24.513Z,2.80
2022-08-07T14:20:40.965Z,3.10
2022-08-07T14:23:59.347Z,2.90
2022-08-07T14:29:04.438Z,3.25
2022-08-07T14:34:29.524Z,2.65
2022-08-07T14:37:02.000Z,3.15
2022-08-07T14:40:17.707Z,3.05
2022-08-07T14:42:31.229Z,3.17
2022-08-07T14:45:21.457Z,2.90
2022-08-07T14:47:51.231Z,3.00
2022-08-07T14:50:22.630Z,3.05
2022-08-07T14:52:52.985Z,2.63
2022-08-07T14:55:20.594Z,3.05
2022-08-07T15:00:41.053Z,2.70
2022-08-07T15:06:04.298Z,3.00
2022-08-07T15:11:50.790Z,3.08
2022-08-07T15:17:16.690Z,2.45
2022-08-07T15:20:30.959Z,2.92
2022-08-07T15:22:53.744Z,3.00
2022-08-07T15:25:36.952Z,3.30
2022-08-07T15:28:34.764Z,2.90
2022-08-07T15:31:04.738Z,2.42
2022-08-07T15:33:36.355Z,2.85
2022-08-07T15:36:07.904Z,2.58
2022-08-07T15:38:51.315Z,3.00
2022-08-07T15:42:45.155Z,2.97
2022-08-07T15:46:53.131Z,2.85
2022-08-07T15:50:04.363Z,2.88
2022-08-07T15:52:17.241Z,3.10
2022-08-07T15:54:49.604Z,2.60
2022-08-07T15:57:28.282Z,2.95
2022-08-07T16:00:08.256Z,2.90
2022-08-07T16:02:47.137Z,2.78
2022-08-07T16:05:20.067Z,3.30
2022-08-07T16:08:32.778Z,2.60
2022-08-07T16:10:48.495Z,2.90
2022-08-07T16:13:58.855Z,2.63
2022-08-07T16:19:59.072Z,3.08
2022-08-07T16:22:33.683Z,2.92
2022-08-07T16:25:52.326Z,3.17
2022-08-07T16:30:06.460Z,3.25
2022-08-07T16:31:25.208Z,2.83
2022-08-07T16:34:49.976Z,2.92
2022-08-07T16:38:06.046Z,2.70
2022-08-07T16:40:28.789Z,2.83
2022-08-07T16:43:15.642Z,2.38
2022-08-07T16:46:33.209Z,2.35
2022-08-07T16:50:27.053Z,2.80
2022-08-07T16:52:51.850Z,3.20
2022-08-07T16:55:47.417Z,2.95
2022-08-07T16:58:33.711Z,2.55
2022-08-07T17:01:34.261Z,2.65
2022-08-07T17:04:12.523Z,3.08
2022-08-07T17:07:09.182Z,3.35
2022-08-07T17:10:06.649Z,3.00
2022-08-07T17:12:53.094Z,2.90
2022-08-07T17:15:28.869Z,3.17
2022-08-07T17:18:26.205Z,2.83
2022-08-07T17:23:39.888Z,3.53
2022-08-07T17:26:23.466Z,3.53
2022-08-07T17:30:14.322Z,3.65
2022-08-07T17:32:31.260Z,3.53
2022-08-07T17:35:51.776Z,4.28
2022-08-07T17:38:39.696Z,3.42
2022-08-07T17:42:04.655Z,3.80
2022-08-07T17:44:41.470Z,3.90
2022-08-07T17:47:16.606Z,3.75
2022-08-07T17:50:03.272Z,4.40
2022-08-07T17:52:39.898Z,4.32
2022-08-07T17:56:01.195Z,3.85
2022-08-07T17:58:30.750Z,4.03
2022-08-07T18:01:02.872Z,4.18
2022-08-07T18:04:07.384Z,3.88
2022-08-07T18:07:19.608Z,4.32
2022-08-07T18:10:06.725Z,3.85
2022-08-07T18:13:06.784Z,4.90
2022-08-07T18:15:54.896Z,4.28
2022-08-07T18:18:45.479Z,4.38
2022-08-07T18:21:57.874Z,4.40
2022-08-07T18:24:37.311Z,4.78
2022-08-07T18:27:39.317Z,4.80
2022-08-07T18:30:32.583Z,4.97
2022-08-07T18:33:12.015Z,4.60
2022-08-07T18:35:57.541Z,4.97
2022-08-07T18:38:58.809Z,4.90
2022-08-07T18:42:05.224Z,5.07
2022-08-07T18:45:43.376Z,4.50
2022-08-07T18:47:45.356Z,4.32
2022-08-07T18:50:43.905Z,3.95
2022-08-07T18:53:22.023Z,4.32
2022-08-07T18:56:34.967Z,4.18
2022-08-07T18:59:47.186Z,4.07
2022-08-07T19:02:58.913Z,4.22
2022-08-07T19:06:02.596Z,3.90
2022-08-07T19:08:55.734Z,4.18
2022-08-07T19:12:04.239Z,3.83
2022-08-07T19:14:52.959Z,4.20
2022-08-07T19:17:58.854Z,3.90
2022-08-07T19:20:28.999Z,3.97
2022-08-07T19:23:18.924Z,4.15
2022-08-07T19:26:25.249Z,3.67
2022-08-07T19:30:54.518Z,3.30
2022-08-07T19:32:01.172Z,3.40
2022-08-07T19:34:34.001Z,3.22
2022-08-07T19:37:10.177Z,4.03
2022-08-07T19:39:57.350Z,3.83
2022-08-07T19:42:31.138Z,3.67
2022-08-07T19:45:09.477Z,4.63
2022-08-07T19:47:42.127Z,3.80
2022-08-07T19:50:44.414Z,3.78
2022-08-07T19:52:58.924Z,4.03
2022-08-07T19:55:56.525Z,4.25
2022-08-07T19:58:18.519Z,2.83
2022-08-07T20:00:57.203Z,3.63
2022-08-07T20:03:34.468Z,3.65
2022-08-07T20:06:06.360Z,4.20
2022-08-07T20:08:50.709Z,4.15
2022-08-07T20:11:23.273Z,3.97
2022-08-07T20:14:13.759Z,4.00
2022-08-07T20:16:48.249Z,3.92
2022-08-07T20:19:23.925Z,4.00
2022-08-07T20:21:57.034Z,3.42
2022-08-07T20:24:32.647Z,4.47
2022-08-07T20:27:02.437Z,4.13
2022-08-07T20:29:48.401Z,3.95
2022-08-07T20:32:40.388Z,3.25
2022-08-07T20:35:26.243Z,3.88
2022-08-07T20:37:58.756Z,3.92
2022-08-07T20:40:33.453Z,3.92
2022-08-07T20:43:03.190Z,3.40
2022-08-07T20:46:26.477Z,3.95
2022-08-07T20:48:30.088Z,3.55
2022-08-07T20:51:03.076Z,4.10
2022-08-07T20:54:02.159Z,3.58
2022-08-07T20:56:29.394Z,4.20
2022-08-07T20:58:58.833Z,3.70
2022-08-07T21:01:36.613Z,4.50
2022-08-07T21:04:22.162Z,3.88
2022-08-07T21:06:53.383Z,4.10
2022-08-07T21:09:24.361Z,4.30
2022-08-07T21:11:57.233Z,3.60
2022-08-07T21:14:32.038Z,3.67
2022-08-07T21:18:02.256Z,3.42
2022-08-07T21:20:05.129Z,4.93
2022-08-07T21:22:39.511Z,4.55
2022-08-07T21:25:29.117Z,4.40
2022-08-07T21:28:16.792Z,4.85
2022-08-07T21:32:10.823Z,4.40
2022-08-07T21:34:46.025Z,3.85
2022-08-07T21:37:59.640Z,4.90
2022-08-07T21:40:57.480Z,4.18
2022-08-07T21:43:47.338Z,4.60
2022-08-07T21:46:48.111Z,4.65
2022-08-07T21:50:01.890Z,4.25
2022-08-07T21:52:57.927Z,4.28
2022-08-07T21:55:30.892Z,4.30
2022-08-07T21:58:12.173Z,4.22
2022-08-07T22:00:54.202Z,4.78
2022-08-07T22:03:36.014Z,4.30
2022-08-07T22:06:30.259Z,4.00
2022-08-07T22:09:01.446Z,4.57
2022-08-07T22:11:53.120Z,4.03
2022-08-07T22:14:36.607Z,4.28
2022-08-07T22:17:05.900Z,4.20
2022-08-07T22:19:41.408Z,4.50
2022-08-07T22:22:20.811Z,4.40
2022-08-07T22:25:07.548Z,4.30
2022-08-07T22:28:07.372Z,5.05
2022-08-07T22:30:57.355Z,5.00
2022-08-07T22:33:56.408Z,4.85
2022-08-07T22:36:52.600Z,4.80
2022-08-07T22:39:53.003Z,4.35
2022-08-07T22:42:25.577Z,5.32
2022-08-07T22:46:04.326Z,4.20
2022-08-07T22:48:31.480Z,4.85
2022-08-07T22:51:24.374Z,4.20
2022-08-07T22:54:12.043Z,4.25
2022-08-07T22:59:34.655Z,4.70
2022-08-07T23:02:18.300Z,4.38
2022-08-07T23:06:08.709Z,5.10
2022-08-07T23:08:46.269Z,5.03
2022-08-07T23:11:41.186Z,3.92
2022-08-07T23:14:47.550Z,2.90
2022-08-07T23:17:26.857Z,4.10
2022-08-07T23:20:51.560Z,4.32
2022-08-07T23:24:06.215Z,5.45
2022-08-07T23:26:28.356Z,4.93
2022-08-07T23:30:36.345Z,5.70
2022-08-07T23:34:22.816Z,4.60
2022-08-07T23:36:10.622Z,4.50
2022-08-07T23:39:16.035Z,5.38
2022-08-07T23:42:15.610Z,5.07
2022-08-07T23:45:07.317Z,4.68
2022-08-07T23:48:20.655Z,4.45
2022-08-07T23:52:58.942Z,4.47
2022-08-07T23:54:44.057Z,4.43
2022-08-07T23:57:35.396Z,4.90
